• Join FlightAware (Why Join?)
  • Login
  • US Flag 
12:32PM EST


 

Airport Tracker/Info


-or-


 

Live Flight TrackerFlight Track Log ✈ TAM3746 ✈ 13-Nov-2013 ✈ SBEG / MAO - SBBV / BVB

Flight Track Log - Related Links

Times and Time Zones

All times are in EST time to prevent confusion due to time zone crossing. See the TAM3746 flight status page for this flight to view local times or setup timezone preferences in your user account.

Time Position Orientation Groundspeed Altitude Reporting Facility
EST Latitude Longitude Course Direction KTS MPH feet Rate Location/Type
12:55AM -3.0390 -60.0390 253° West 166 191 600  Level FlightAware
12:55AM -3.0380 -60.0100 88° East 154 177 2,200 2,040 Climbing FlightAware
12:56AM -3.0230 -59.9940 47° Northeast 170 196 3,100 1,200 Climbing FlightAware
12:56AM -2.9870 -60.0010 349° North 213 245 3,700 840 Climbing FlightAware
12:57AM -2.9560 -60.0090 346° North 259 298 4,100 1,140 Climbing FlightAware
12:57AM -2.9330 -60.0130 350° North 281 323 4,600 2,160 Climbing FlightAware
12:58AM -2.9080 -60.0180 349° North 285 328 5,500 2,580 Climbing FlightAware
12:58AM -2.8520 -60.0300 348° North 297 342 7,300 2,640 Climbing FlightAware
12:59AM -2.8110 -60.0380 349° North 299 344 8,700 2,760 Climbing FlightAware
12:59AM -2.7640 -60.0480 348° North 298 343 10,300 1,740 Climbing FlightAware
01:00AM -2.6890 -60.0630 349° North 346 398 11,200 1,620 Climbing FlightAware
01:01AM -2.5960 -60.0820 348° North 362 417 13,300 2,280 Climbing FlightAware
01:02AM -2.5170 -60.0980 349° North 361 415 15,200 2,040 Climbing FlightAware
01:03AM -2.4120 -60.1190 349° North 372 428 17,200 1,800 Climbing FlightAware
01:04AM -2.3280 -60.1320 351° North 381 438 18,600 1,680 Climbing FlightAware
01:04AM -2.2690 -60.1390 353° North 386 444 19,500 1,560 Climbing FlightAware
01:05AM -2.1600 -60.1510 354° North 396 456 21,100 1,500 Climbing FlightAware
01:06AM -2.1020 -60.1570 354° North 399 459 21,800 1,260 Climbing FlightAware
01:07AM -1.9830 -60.1700 354° North 410 472 23,100 1,140 Climbing FlightAware
01:07AM -1.9360 -60.1750 354° North 415 478 23,500 1,140 Climbing FlightAware
01:08AM -1.8300 -60.1870 354° North 423 487 24,600 1,200 Climbing FlightAware
01:09AM -1.7200 -60.1990 354° North 431 496 25,700 960 Climbing FlightAware
01:10AM -1.6640 -60.2050 354° North 437 503 26,000 840 Climbing FlightAware
01:10AM -1.5640 -60.2160 354° North 446 513 26,800 900 Climbing FlightAware
01:12AM -1.4260 -60.2310 354° North 454 522 27,800 900 Climbing FlightAware
01:12AM -1.3190 -60.2420 354° North 460 529 28,600 600 Climbing FlightAware
01:14AM -1.1670 -60.2600 353° North 465 535 29,100 180 Climbing FlightAware
01:15AM -1.0580 -60.2730 353° North 465 535 29,100  Level FlightAware
01:16AM -0.9710 -60.2840 353° North 465 535 29,100  Level FlightAware
01:16AM -0.9060 -60.2920 353° North 465 535 29,100  Level FlightAware
01:17AM -0.8170 -60.3030 353° North 465 535 29,100  Level FlightAware
01:20AM -0.5341 -60.3329 354° North  Level Estimated
01:21AM -0.4231 -60.3446 354° North  Level Estimated
01:22AM -0.3122 -60.3563 354° North  Level Estimated
01:23AM -0.2012 -60.3680 354° North  Level Estimated
01:24AM -0.0903 -60.3798 354° North  Level Estimated
01:25AM 0.0207 -60.3915 354° North  Level Estimated
01:26AM 0.1316 -60.4032 354° North  Level Estimated
01:27AM 0.2426 -60.4149 354° North  Level Estimated
01:28AM 0.3535 -60.4266 354° North  Level Estimated
01:29AM 0.4645 -60.4384 354° North  Level Estimated
01:30AM 0.5754 -60.4501 354° North  Level Estimated
01:31AM 0.6864 -60.4618 354° North  Level Estimated
01:32AM 0.7973 -60.4735 354° North  Level Estimated
01:33AM 0.9083 -60.4852 354° North  Level Estimated
01:34AM 1.0192 -60.4969 354° North  Level Estimated
01:36AM -2.8520 -60.0701 354° North  Level Estimated
01:37AM -2.7587 -60.0802 354° North  Level Estimated
01:38AM -2.6654 -60.0904 354° North  Level Estimated
01:39AM -2.5721 -60.1006 354° North  Level Estimated
01:40AM -2.4787 -60.1107 354° North  Level Estimated
01:41AM -2.3854 -60.1209 354° North  Level Estimated
01:42AM -2.2921 -60.1311 354° North  Level Estimated
01:43AM -2.1988 -60.1412 354° North  Level Estimated
01:44AM -2.1055 -60.1514 354° North  Level Estimated
01:45AM -2.0122 -60.1615 354° North  Level Estimated
01:46AM -1.9189 -60.1717 354° North  Level Estimated
01:47AM -1.8256 -60.1818 354° North  Level Estimated
01:48AM -1.7323 -60.1920 354° North  Level Estimated
01:49AM -1.6390 -60.2021 354° North  Level Estimated
01:50AM -1.5457 -60.2123 354° North  Level Estimated
01:51AM -1.4523 -60.2224 354° North  Level Estimated
01:52AM -1.3590 -60.2326 354° North  Level Estimated
01:53AM -1.2657 -60.2427 354° North  Level Estimated
01:54AM -1.1724 -60.2529 354° North  Level Estimated
01:55AM -1.0791 -60.2630 354° North  Level Estimated
01:56AM -0.9858 -60.2732 354° North  Level Estimated
01:57AM -0.8925 -60.2833 354° North  Level Estimated
01:58AM -0.7992 -60.2935 354° North  Level Estimated
01:59AM -0.7059 -60.3036 354° North  Level Estimated
02:00AM -0.6126 -60.3138 354° North  Level Estimated
02:01AM -0.5192 -60.3239 354° North  Level Estimated
02:02AM -0.4259 -60.3341 354° North  Level Estimated
02:03AM -0.3326 -60.3442 354° North  Level Estimated
02:04AM -0.2393 -60.3544 354° North  Level Estimated
02:05AM -0.1460 -60.3645 354° North  Level Estimated
02:06AM -0.0527 -60.3746 354° North  Level Estimated
02:07AM 0.0406 -60.3848 354° North  Level Estimated
02:08AM 0.1339 -60.3949 354° North  Level Estimated
02:09AM 0.2272 -60.4051 354° North  Level Estimated
02:10AM 0.3205 -60.4152 354° North  Level Estimated
02:11AM 0.4139 -60.4254 354° North  Level Estimated
02:12AM 0.5072 -60.4355 354° North  Level Estimated
02:13AM 0.6005 -60.4457 354° North  Level Estimated
02:14AM 0.6938 -60.4558 354° North  Level Estimated
02:15AM 0.7871 -60.4660 354° North  Level Estimated
02:16AM 0.8804 -60.4761 354° North  Level Estimated
02:17AM 0.9737 -60.4863 354° North  Level Estimated
02:18AM 1.0670 -60.4964 354° North  Level Estimated
02:19AM 1.1603 -60.5066 354° North  Level Estimated
02:20AM 1.2536 -60.5167 354° North  Level Estimated
02:21AM 1.3470 -60.5269 354° North  Level Estimated
02:22AM 1.4403 -60.5370 354° North  Level Estimated
02:23AM 1.5336 -60.5472 354° North  Level Estimated
02:24AM 1.6269 -60.5573 354° North  Level Estimated
02:25AM 1.7202 -60.5675 354° North  Level Estimated
02:26AM 1.8135 -60.5776 354° North  Level Estimated
02:27AM 1.9068 -60.5878 354° North  Level Estimated
02:28AM 2.0001 -60.5979 354° North  Level Estimated
02:29AM 2.0934 -60.6081 354° North  Level Estimated
02:30AM 2.1867 -60.6182 354° North  Level Estimated
02:31AM 2.2801 -60.6284 354° North  Level Estimated
02:32AM 2.3734 -60.6386 354° North  Level Estimated
02:33AM 2.4667 -60.6487 354° North  Level Estimated
02:34AM 2.5600 -60.6589 354° North  Level Estimated